Tuesday, April 24, 2018, 4:40 AM EDT
Back to Local

KBTV, Burlington International

Location: South Burlington, VT, United States Lat: 44.467
Local Time: 4:40 AM EDT ( 8:40 GMT) Lon: -73.15
Time Zone: US/Eastern Elev: 334 ft

Show me the last for .
Show Decoded

2018-04-24 03:54 METAR KBTV 240754Z AUTO 19012G20KT 10SM CLR 12/M06 A3028 RMK AO2 SLP254
                 T01171056 =
2018-04-24 02:54 METAR KBTV 240654Z AUTO 19012KT 10SM CLR 12/M06 A3028 RMK AO2 SLP256 T01171056 =
2018-04-24 01:54 METAR KBTV 240554Z AUTO 19012KT 10SM CLR 12/M08 A3028 RMK AO2 SLP255 T01221078
                 10167 20111 58002 =
2018-04-24 00:54 METAR KBTV 240454Z AUTO 18009KT 10SM CLR 12/M11 A3029 RMK AO2 SLP258 T01221106
                 401941011 =
2018-04-23 23:54 METAR KBTV 240354Z 18007KT 10SM CLR 13/M11 A3029 RMK AO2 SLP259 LAST T01281111 =
2018-04-23 22:54 METAR KBTV 240254Z 18005KT 10SM CLR 13/M11 A3029 RMK AO2 SLP258 T01331111 58001
                 =
2018-04-23 21:54 METAR KBTV 240154Z 18004KT 10SM CLR 13/M10 A3030 RMK AO2 SLP260 T01331100 =
2018-04-23 20:54 METAR KBTV 240054Z 18006KT 10SM CLR 13/M09 A3030 RMK AO2 SLP261 T01331094 =
2018-04-23 19:54 METAR KBTV 232354Z 17005KT 10SM CLR 17/M12 A3029 RMK AO2 SLP260 T01671117 10194
                 20167 56010 =
2018-04-23 18:54 METAR KBTV 232254Z 19008KT 10SM SCT250 18/M13 A3030 RMK AO2 SLP263 T01831128 =
2018-04-23 17:54 METAR KBTV 232154Z 18005KT 10SM SCT250 19/M14 A3031 RMK AO2 SLP265 T01941139 =
2018-04-23 16:54 METAR KBTV 232054Z 16009KT 10SM SCT250 19/M11 A3032 RMK AO2 SLP271 T01941111
                 56026 =
2018-04-23 15:54 METAR KBTV 231954Z VRB05KT 10SM FEW250 19/M11 A3035 RMK AO2 SLP278 T01941111 =
2018-04-23 14:54 METAR KBTV 231854Z VRB04KT 10SM SCT250 18/M11 A3038 RMK AO2 SLP289 T01831111 =
2018-04-23 13:54 METAR KBTV 231754Z 26008KT 10SM SCT250 18/M09 A3040 RMK AO2 SLP297 T01781089
                 10178 20039 58025 =
2018-04-23 12:54 METAR KBTV 231654Z 27007KT 10SM SCT250 16/M09 A3043 RMK AO2 SLP307 T01611094 =
2018-04-23 11:54 METAR KBTV 231554Z 19007KT 10SM FEW250 16/M10 A3046 RMK AO2 SLP317 T01561100 =
2018-04-23 10:54 METAR KBTV 231454Z 25004KT 10SM FEW250 14/M10 A3048 RMK AO2 SLP322 T01441100
                 58007 =
2018-04-23 09:54 METAR KBTV 231354Z 19006KT 10SM SCT250 12/M06 A3049 RMK AO2 SLP326 T01171061 =
2018-04-23 08:54 METAR KBTV 231254Z 15004KT 10SM FEW250 08/M04 A3050 RMK AO2 SLP329 T00831044 =
2018-04-23 07:54 METAR KBTV 231154Z 00000KT 10SM CLR 04/M03 A3050 RMK AO2 SLP330 T00391033 10039
                 21011 53023 =
2018-04-23 06:54 METAR KBTV 231054Z 00000KT 10SM CLR 01/M04 A3048 RMK AO2 SLP324 T00061039 =
2018-04-23 05:54 METAR KBTV 230954Z 00000KT 10SM CLR M01/M04 A3045 RMK AO2 SLP313 T10061044 =
2018-04-23 04:54 METAR KBTV 230854Z AUTO 00000KT 10SM CLR 00/M04 A3043 RMK AO2 SLP308 T00001044
                 53005 =

Support USWX by starting your Amazon purchase here.